sensor_id;sensor_type;location;lat;lon;timestamp;temperature;humidity
70534;SHT31;58088;51.186;17.130;2022-12-18T00:01:23;-3.05;76.34
70534;SHT31;58088;51.186;17.130;2022-12-18T00:03:52;-3.05;76.40
70534;SHT31;58088;51.186;17.130;2022-12-18T00:06:21;-3.03;76.40
70534;SHT31;58088;51.186;17.130;2022-12-18T00:08:49;-3.05;76.40
70534;SHT31;58088;51.186;17.130;2022-12-18T00:11:16;-3.07;76.40
70534;SHT31;58088;51.186;17.130;2022-12-18T00:13:45;-3.07;76.40
70534;SHT31;58088;51.186;17.130;2022-12-18T00:16:14;-3.09;76.43
70534;SHT31;58088;51.186;17.130;2022-12-18T00:18:46;-3.06;76.50
70534;SHT31;58088;51.186;17.130;2022-12-18T00:21:14;-3.04;76.50
70534;SHT31;58088;51.186;17.130;2022-12-18T00:23:41;-3.04;76.49
70534;SHT31;58088;51.186;17.130;2022-12-18T00:26:13;-3.04;76.53
70534;SHT31;58088;51.186;17.130;2022-12-18T00:28:43;-3.01;76.60
70534;SHT31;58088;51.186;17.130;2022-12-18T00:31:12;-2.96;76.60
70534;SHT31;58088;51.186;17.130;2022-12-18T00:33:43;-2.98;76.60
70534;SHT31;58088;51.186;17.130;2022-12-18T00:36:12;-3.01;76.59
70534;SHT31;58088;51.186;17.130;2022-12-18T00:38:45;-2.99;76.61
70534;SHT31;58088;51.186;17.130;2022-12-18T00:41:13;-2.95;76.67
70534;SHT31;58088;51.186;17.130;2022-12-18T00:44:00;-2.92;76.73
70534;SHT31;58088;51.186;17.130;2022-12-18T00:46:29;-2.88;76.72
70534;SHT31;58088;51.186;17.130;2022-12-18T00:48:56;-2.86;76.70
70534;SHT31;58088;51.186;17.130;2022-12-18T00:51:23;-2.84;76.70
70534;SHT31;58088;51.186;17.130;2022-12-18T00:53:50;-2.86;76.70
70534;SHT31;58088;51.186;17.130;2022-12-18T00:56:17;-2.86;76.70
70534;SHT31;58088;51.186;17.130;2022-12-18T00:58:46;-2.83;76.73
70534;SHT31;58088;51.186;17.130;2022-12-18T01:01:13;-2.82;76.70
70534;SHT31;58088;51.186;17.130;2022-12-18T01:03:40;-2.83;76.66
70534;SHT31;58088;51.186;17.130;2022-12-18T01:06:07;-2.86;76.69
70534;SHT31;58088;51.186;17.130;2022-12-18T01:08:37;-2.89;76.70
70534;SHT31;58088;51.186;17.130;2022-12-18T01:11:08;-2.88;76.76
70534;SHT31;58088;51.186;17.130;2022-12-18T01:13:37;-2.86;76.79
70534;SHT31;58088;51.186;17.130;2022-12-18T01:16:04;-2.85;76.80
70534;SHT31;58088;51.186;17.130;2022-12-18T01:18:34;-2.84;76.80
70534;SHT31;58088;51.186;17.130;2022-12-18T01:21:05;-2.82;76.80
70534;SHT31;58088;51.186;17.130;2022-12-18T01:23:37;-2.76;76.80
70534;SHT31;58088;51.186;17.130;2022-12-18T01:26:07;-2.69;76.80
70534;SHT31;58088;51.186;17.130;2022-12-18T01:28:39;-2.67;76.71
70534;SHT31;58088;51.186;17.130;2022-12-18T01:31:10;-2.65;76.65
70534;SHT31;58088;51.186;17.130;2022-12-18T01:33:49;-2.68;76.63
70534;SHT31;58088;51.186;17.130;2022-12-18T01:38:53;-2.68;76.70
70534;SHT31;58088;51.186;17.130;2022-12-18T01:41:26;-2.66;76.70
70534;SHT31;58088;51.186;17.130;2022-12-18T01:50:08;-2.76;76.76
70534;SHT31;58088;51.186;17.130;2022-12-18T01:52:47;-2.74;76.87
70534;SHT31;58088;51.186;17.130;2022-12-18T01:55:18;-2.68;76.89
70534;SHT31;58088;51.186;17.130;2022-12-18T01:57:49;-2.67;76.87
70534;SHT31;58088;51.186;17.130;2022-12-18T02:00:21;-2.64;76.84
70534;SHT31;58088;51.186;17.130;2022-12-18T02:03:09;-2.61;76.67
70534;SHT31;58088;51.186;17.130;2022-12-18T02:08:34;-2.60;76.50
70534;SHT31;58088;51.186;17.130;2022-12-18T02:18:08;-2.54;76.31
70534;SHT31;58088;51.186;17.130;2022-12-18T02:20:21;-2.54;76.31
70534;SHT31;58088;51.186;17.130;2022-12-18T02:29:12;-2.49;76.30
70534;SHT31;58088;51.186;17.130;2022-12-18T02:31:47;-2.49;76.30
70534;SHT31;58088;51.186;17.130;2022-12-18T02:34:19;-2.51;76.35
70534;SHT31;58088;51.186;17.130;2022-12-18T02:36:53;-2.47;76.33
70534;SHT31;58088;51.186;17.130;2022-12-18T02:39:21;-2.43;76.27
70534;SHT31;58088;51.186;17.130;2022-12-18T02:41:57;-2.44;76.20
70534;SHT31;58088;51.186;17.130;2022-12-18T02:44:27;-2.48;76.25
70534;SHT31;58088;51.186;17.130;2022-12-18T02:46:53;-2.50;76.30
70534;SHT31;58088;51.186;17.130;2022-12-18T02:52:51;-2.46;76.40
70534;SHT31;58088;51.186;17.130;2022-12-18T03:04:43;-2.34;76.50
70534;SHT31;58088;51.186;17.130;2022-12-18T03:07:24;-2.33;76.46
70534;SHT31;58088;51.186;17.130;2022-12-18T03:10:04;-2.31;76.41
70534;SHT31;58088;51.186;17.130;2022-12-18T03:12:42;-2.33;76.39
70534;SHT31;58088;51.186;17.130;2022-12-18T03:15:23;-2.35;76.38
70534;SHT31;58088;51.186;17.130;2022-12-18T03:18:02;-2.31;76.40
70534;SHT31;58088;51.186;17.130;2022-12-18T03:20:47;-2.28;76.38
70534;SHT31;58088;51.186;17.130;2022-12-18T03:23:23;-2.30;76.30
70534;SHT31;58088;51.186;17.130;2022-12-18T03:25:56;-2.35;76.30
70534;SHT31;58088;51.186;17.130;2022-12-18T03:28:28;-2.38;76.37
70534;SHT31;58088;51.186;17.130;2022-12-18T03:31:02;-2.35;76.46
70534;SHT31;58088;51.186;17.130;2022-12-18T03:33:45;-2.28;76.41
70534;SHT31;58088;51.186;17.130;2022-12-18T03:36:16;-2.26;76.39
70534;SHT31;58088;51.186;17.130;2022-12-18T03:38:43;-2.27;76.35
70534;SHT31;58088;51.186;17.130;2022-12-18T03:47:12;-2.25;76.20
70534;SHT31;58088;51.186;17.130;2022-12-18T03:49:58;-2.26;76.20
70534;SHT31;58088;51.186;17.130;2022-12-18T03:53:23;-2.32;76.22
70534;SHT31;58088;51.186;17.130;2022-12-18T03:55:32;-2.32;76.26
70534;SHT31;58088;51.186;17.130;2022-12-18T03:58:03;-2.26;76.30
70534;SHT31;58088;51.186;17.130;2022-12-18T04:00:42;-2.20;76.28
70534;SHT31;58088;51.186;17.130;2022-12-18T04:03:10;-2.15;76.22
70534;SHT31;58088;51.186;17.130;2022-12-18T04:05:43;-2.10;76.19
70534;SHT31;58088;51.186;17.130;2022-12-18T04:08:13;-2.12;76.07
70534;SHT31;58088;51.186;17.130;2022-12-18T04:10:43;-2.20;76.03
70534;SHT31;58088;51.186;17.130;2022-12-18T04:13:09;-2.21;76.09
70534;SHT31;58088;51.186;17.130;2022-12-18T04:15:36;-2.18;76.09
70534;SHT31;58088;51.186;17.130;2022-12-18T04:18:04;-2.16;76.09
70534;SHT31;58088;51.186;17.130;2022-12-18T04:20:37;-2.13;76.09
70534;SHT31;58088;51.186;17.130;2022-12-18T04:23:03;-2.11;76.00
70534;SHT31;58088;51.186;17.130;2022-12-18T04:25:29;-2.12;75.97
70534;SHT31;58088;51.186;17.130;2022-12-18T04:28:05;-2.11;75.92
70534;SHT31;58088;51.186;17.130;2022-12-18T04:30:32;-2.13;75.90
70534;SHT31;58088;51.186;17.130;2022-12-18T04:32:58;-2.13;75.90
70534;SHT31;58088;51.186;17.130;2022-12-18T04:35:24;-2.13;75.88
70534;SHT31;58088;51.186;17.130;2022-12-18T04:37:51;-2.10;75.88
70534;SHT31;58088;51.186;17.130;2022-12-18T04:40:17;-2.08;75.87
70534;SHT31;58088;51.186;17.130;2022-12-18T04:42:45;-2.05;75.83
70534;SHT31;58088;51.186;17.130;2022-12-18T04:45:11;-2.02;75.80
70534;SHT31;58088;51.186;17.130;2022-12-18T04:47:37;-2.02;75.80
70534;SHT31;58088;51.186;17.130;2022-12-18T04:50:04;-2.04;75.80
70534;SHT31;58088;51.186;17.130;2022-12-18T04:52:31;-2.01;75.88
70534;SHT31;58088;51.186;17.130;2022-12-18T04:54:57;-1.96;75.81
70534;SHT31;58088;51.186;17.130;2022-12-18T04:57:23;-1.93;75.71
70534;SHT31;58088;51.186;17.130;2022-12-18T04:59:49;-1.95;75.61
70534;SHT31;58088;51.186;17.130;2022-12-18T05:02:16;-1.93;75.60
70534;SHT31;58088;51.186;17.130;2022-12-18T05:04:42;-1.90;75.55
70534;SHT31;58088;51.186;17.130;2022-12-18T05:07:08;-1.90;75.50
70534;SHT31;58088;51.186;17.130;2022-12-18T05:09:35;-1.94;75.41
70534;SHT31;58088;51.186;17.130;2022-12-18T05:12:02;-1.99;75.49
70534;SHT31;58088;51.186;17.130;2022-12-18T05:14:28;-2.01;75.50
70534;SHT31;58088;51.186;17.130;2022-12-18T05:16:55;-2.05;75.41
70534;SHT31;58088;51.186;17.130;2022-12-18T05:19:21;-2.08;75.44
70534;SHT31;58088;51.186;17.130;2022-12-18T05:21:47;-2.07;75.46
70534;SHT31;58088;51.186;17.130;2022-12-18T05:24:13;-2.03;75.55
70534;SHT31;58088;51.186;17.130;2022-12-18T05:26:40;-2.00;75.51
70534;SHT31;58088;51.186;17.130;2022-12-18T05:29:06;-1.99;75.48
70534;SHT31;58088;51.186;17.130;2022-12-18T05:31:32;-2.00;75.40
70534;SHT31;58088;51.186;17.130;2022-12-18T05:33:58;-1.99;75.38
70534;SHT31;58088;51.186;17.130;2022-12-18T05:36:24;-1.95;75.31
70534;SHT31;58088;51.186;17.130;2022-12-18T05:38:51;-1.92;75.29
70534;SHT31;58088;51.186;17.130;2022-12-18T05:41:17;-1.92;75.23
70534;SHT31;58088;51.186;17.130;2022-12-18T05:43:43;-1.93;75.20
70534;SHT31;58088;51.186;17.130;2022-12-18T05:46:13;-1.91;75.17
70534;SHT31;58088;51.186;17.130;2022-12-18T05:48:43;-1.91;75.10
70534;SHT31;58088;51.186;17.130;2022-12-18T05:51:11;-1.93;75.11
70534;SHT31;58088;51.186;17.130;2022-12-18T05:53:41;-1.89;75.15
70534;SHT31;58088;51.186;17.130;2022-12-18T05:56:12;-1.86;75.07
70534;SHT31;58088;51.186;17.130;2022-12-18T05:58:42;-1.87;75.01
70534;SHT31;58088;51.186;17.130;2022-12-18T06:01:10;-1.84;75.01
70534;SHT31;58088;51.186;17.130;2022-12-18T06:03:43;-1.86;74.91
70534;SHT31;58088;51.186;17.130;2022-12-18T06:06:13;-1.91;74.84
70534;SHT31;58088;51.186;17.130;2022-12-18T06:08:49;-1.96;74.82
70534;SHT31;58088;51.186;17.130;2022-12-18T06:11:24;-1.99;74.77
70534;SHT31;58088;51.186;17.130;2022-12-18T06:13:55;-2.03;74.80
70534;SHT31;58088;51.186;17.130;2022-12-18T06:16:22;-2.02;74.80
70534;SHT31;58088;51.186;17.130;2022-12-18T06:18:48;-2.04;74.80
70534;SHT31;58088;51.186;17.130;2022-12-18T06:21:14;-2.00;74.87
70534;SHT31;58088;51.186;17.130;2022-12-18T06:23:41;-1.97;74.87
70534;SHT31;58088;51.186;17.130;2022-12-18T06:26:11;-1.99;74.77
70534;SHT31;58088;51.186;17.130;2022-12-18T06:28:39;-2.06;74.65
70534;SHT31;58088;51.186;17.130;2022-12-18T06:31:06;-2.13;74.61
70534;SHT31;58088;51.186;17.130;2022-12-18T06:33:34;-2.17;74.54
70534;SHT31;58088;51.186;17.130;2022-12-18T06:36:02;-2.22;74.45
70534;SHT31;58088;51.186;17.130;2022-12-18T06:38:40;-2.24;74.43
70534;SHT31;58088;51.186;17.130;2022-12-18T06:41:15;-2.23;74.47
70534;SHT31;58088;51.186;17.130;2022-12-18T06:43:44;-2.17;74.49
70534;SHT31;58088;51.186;17.130;2022-12-18T06:46:11;-2.13;74.44
70534;SHT31;58088;51.186;17.130;2022-12-18T06:48:38;-2.08;74.38
70534;SHT31;58088;51.186;17.130;2022-12-18T06:51:05;-2.07;74.28
70534;SHT31;58088;51.186;17.130;2022-12-18T06:53:31;-2.10;74.18
70534;SHT31;58088;51.186;17.130;2022-12-18T06:55:59;-2.12;74.10
70534;SHT31;58088;51.186;17.130;2022-12-18T06:58:32;-2.12;74.12
70534;SHT31;58088;51.186;17.130;2022-12-18T07:00:59;-2.12;74.12
70534;SHT31;58088;51.186;17.130;2022-12-18T07:03:27;-2.12;74.13
70534;SHT31;58088;51.186;17.130;2022-12-18T07:05:53;-2.10;74.20
70534;SHT31;58088;51.186;17.130;2022-12-18T07:08:20;-2.09;74.12
70534;SHT31;58088;51.186;17.130;2022-12-18T07:10:46;-2.09;74.07
70534;SHT31;58088;51.186;17.130;2022-12-18T07:13:17;-2.08;74.00
70534;SHT31;58088;51.186;17.130;2022-12-18T07:15:43;-2.06;74.00
70534;SHT31;58088;51.186;17.130;2022-12-18T07:18:10;-2.01;73.92
70534;SHT31;58088;51.186;17.130;2022-12-18T07:20:36;-1.99;73.86
70534;SHT31;58088;51.186;17.130;2022-12-18T07:23:03;-2.01;73.75
70534;SHT31;58088;51.186;17.130;2022-12-18T07:25:34;-1.99;73.80
70534;SHT31;58088;51.186;17.130;2022-12-18T07:28:03;-1.98;73.72
70534;SHT31;58088;51.186;17.130;2022-12-18T07:30:30;-1.98;73.66
70534;SHT31;58088;51.186;17.130;2022-12-18T07:32:56;-1.98;73.61
70534;SHT31;58088;51.186;17.130;2022-12-18T07:35:22;-2.02;73.51
70534;SHT31;58088;51.186;17.130;2022-12-18T07:37:48;-2.11;73.44
70534;SHT31;58088;51.186;17.130;2022-12-18T07:40:15;-2.19;73.50
70534;SHT31;58088;51.186;17.130;2022-12-18T07:42:41;-2.25;73.51
70534;SHT31;58088;51.186;17.130;2022-12-18T07:45:08;-2.29;73.57
70534;SHT31;58088;51.186;17.130;2022-12-18T07:47:35;-2.28;73.60
70534;SHT31;58088;51.186;17.130;2022-12-18T07:50:02;-2.23;73.70
70534;SHT31;58088;51.186;17.130;2022-12-18T07:52:31;-2.22;73.67
70534;SHT31;58088;51.186;17.130;2022-12-18T07:54:57;-2.23;73.66
70534;SHT31;58088;51.186;17.130;2022-12-18T07:57:23;-2.26;73.63
70534;SHT31;58088;51.186;17.130;2022-12-18T07:59:49;-2.29;73.61
70534;SHT31;58088;51.186;17.130;2022-12-18T08:02:16;-2.30;73.60
70534;SHT31;58088;51.186;17.130;2022-12-18T08:04:43;-2.27;73.65
70534;SHT31;58088;51.186;17.130;2022-12-18T08:07:09;-2.23;73.70
70534;SHT31;58088;51.186;17.130;2022-12-18T08:09:35;-2.21;73.62
70534;SHT31;58088;51.186;17.130;2022-12-18T08:12:01;-2.20;73.57
70534;SHT31;58088;51.186;17.130;2022-12-18T08:14:27;-2.15;73.51
70534;SHT31;58088;51.186;17.130;2022-12-18T08:16:54;-2.12;73.56
70534;SHT31;58088;51.186;17.130;2022-12-18T08:19:20;-2.11;73.54
70534;SHT31;58088;51.186;17.130;2022-12-18T08:21:46;-2.16;73.40
70534;SHT31;58088;51.186;17.130;2022-12-18T08:24:12;-2.17;73.39
70534;SHT31;58088;51.186;17.130;2022-12-18T08:26:39;-2.21;73.38
70534;SHT31;58088;51.186;17.130;2022-12-18T08:29:05;-2.20;73.40
70534;SHT31;58088;51.186;17.130;2022-12-18T08:31:32;-2.21;73.40
70534;SHT31;58088;51.186;17.130;2022-12-18T08:33:58;-2.29;73.41
70534;SHT31;58088;51.186;17.130;2022-12-18T08:36:24;-2.33;73.41
70534;SHT31;58088;51.186;17.130;2022-12-18T08:38:51;-2.36;73.44
70534;SHT31;58088;51.186;17.130;2022-12-18T08:41:18;-2.38;73.50
70534;SHT31;58088;51.186;17.130;2022-12-18T08:43:45;-2.40;73.44
70534;SHT31;58088;51.186;17.130;2022-12-18T08:46:32;-2.39;73.51
70534;SHT31;58088;51.186;17.130;2022-12-18T08:49:05;-2.38;73.53
70534;SHT31;58088;51.186;17.130;2022-12-18T08:51:33;-2.39;73.50
70534;SHT31;58088;51.186;17.130;2022-12-18T08:54:00;-2.40;73.50
70534;SHT31;58088;51.186;17.130;2022-12-18T08:56:27;-2.36;73.50
70534;SHT31;58088;51.186;17.130;2022-12-18T08:58:55;-2.27;73.54
70534;SHT31;58088;51.186;17.130;2022-12-18T09:01:22;-2.24;73.49
70534;SHT31;58088;51.186;17.130;2022-12-18T09:03:50;-2.23;73.37
70534;SHT31;58088;51.186;17.130;2022-12-18T09:06:17;-2.24;73.26
70534;SHT31;58088;51.186;17.130;2022-12-18T09:08:46;-2.22;73.35
70534;SHT31;58088;51.186;17.130;2022-12-18T09:11:14;-2.20;73.24
70534;SHT31;58088;51.186;17.130;2022-12-18T09:13:46;-2.20;73.22
70534;SHT31;58088;51.186;17.130;2022-12-18T09:16:12;-2.23;73.18
70534;SHT31;58088;51.186;17.130;2022-12-18T09:18:38;-2.21;73.17
70534;SHT31;58088;51.186;17.130;2022-12-18T09:21:09;-2.22;73.03
70534;SHT31;58088;51.186;17.130;2022-12-18T09:23:38;-2.20;72.95
70534;SHT31;58088;51.186;17.130;2022-12-18T09:26:05;-2.20;72.89
70534;SHT31;58088;51.186;17.130;2022-12-18T09:28:32;-2.27;72.78
70534;SHT31;58088;51.186;17.130;2022-12-18T09:31:02;-2.35;72.72
70534;SHT31;58088;51.186;17.130;2022-12-18T09:33:33;-2.37;72.78
70534;SHT31;58088;51.186;17.130;2022-12-18T09:36:05;-2.31;72.84
70534;SHT31;58088;51.186;17.130;2022-12-18T09:38:34;-2.21;72.81
70534;SHT31;58088;51.186;17.130;2022-12-18T09:41:17;-2.20;72.71
70534;SHT31;58088;51.186;17.130;2022-12-18T09:43:48;-2.21;72.61
70534;SHT31;58088;51.186;17.130;2022-12-18T09:46:22;-2.20;72.60
70534;SHT31;58088;51.186;17.130;2022-12-18T09:48:56;-2.14;72.60
70534;SHT31;58088;51.186;17.130;2022-12-18T09:51:45;-2.11;72.46
70534;SHT31;58088;51.186;17.130;2022-12-18T09:54:40;-2.05;72.38
70534;SHT31;58088;51.186;17.130;2022-12-18T09:57:20;-2.10;72.23
70534;SHT31;58088;51.186;17.130;2022-12-18T09:59:51;-2.16;72.22
70534;SHT31;58088;51.186;17.130;2022-12-18T10:02:24;-2.16;72.30
70534;SHT31;58088;51.186;17.130;2022-12-18T10:05:05;-2.12;72.26
70534;SHT31;58088;51.186;17.130;2022-12-18T10:07:40;-2.12;72.18
70534;SHT31;58088;51.186;17.130;2022-12-18T10:24:33;-1.89;71.83
70534;SHT31;58088;51.186;17.130;2022-12-18T10:27:45;-1.81;71.80
70534;SHT31;58088;51.186;17.130;2022-12-18T10:30:14;-1.76;71.76
70534;SHT31;58088;51.186;17.130;2022-12-18T10:32:46;-1.73;71.70
70534;SHT31;58088;51.186;17.130;2022-12-18T10:35:20;-1.72;71.60
70534;SHT31;58088;51.186;17.130;2022-12-18T10:38:00;-1.68;71.59
70534;SHT31;58088;51.186;17.130;2022-12-18T10:43:31;-1.66;71.49
70534;SHT31;58088;51.186;17.130;2022-12-18T10:48:49;-1.59;71.39
70534;SHT31;58088;51.186;17.130;2022-12-18T10:56:26;-1.69;71.17
70534;SHT31;58088;51.186;17.130;2022-12-18T10:59:00;-1.79;71.25
70534;SHT31;58088;51.186;17.130;2022-12-18T11:01:45;-1.82;71.23
70534;SHT31;58088;51.186;17.130;2022-12-18T11:04:22;-1.85;71.25
70534;SHT31;58088;51.186;17.130;2022-12-18T11:06:59;-1.83;71.27
70534;SHT31;58088;51.186;17.130;2022-12-18T11:09:29;-1.83;71.27
70534;SHT31;58088;51.186;17.130;2022-12-18T11:11:59;-1.80;71.29
70534;SHT31;58088;51.186;17.130;2022-12-18T11:14:46;-1.80;71.20
70534;SHT31;58088;51.186;17.130;2022-12-18T11:20:01;-1.74;71.28
70534;SHT31;58088;51.186;17.130;2022-12-18T11:22:54;-1.67;71.28
70534;SHT31;58088;51.186;17.130;2022-12-18T11:25:38;-1.60;71.18
70534;SHT31;58088;51.186;17.130;2022-12-18T11:28:50;-1.53;71.19
70534;SHT31;58088;51.186;17.130;2022-12-18T11:31:40;-1.45;71.10
70534;SHT31;58088;51.186;17.130;2022-12-18T11:34:10;-1.41;71.04
70534;SHT31;58088;51.186;17.130;2022-12-18T11:36:58;-1.35;70.99
70534;SHT31;58088;51.186;17.130;2022-12-18T11:39:36;-1.32;70.83
70534;SHT31;58088;51.186;17.130;2022-12-18T11:42:09;-1.33;70.77
70534;SHT31;58088;51.186;17.130;2022-12-18T11:50:00;-1.46;70.75
70534;SHT31;58088;51.186;17.130;2022-12-18T11:52:34;-1.51;70.69
70534;SHT31;58088;51.186;17.130;2022-12-18T11:55:10;-1.59;70.64
70534;SHT31;58088;51.186;17.130;2022-12-18T12:00:12;-1.70;70.75
70534;SHT31;58088;51.186;17.130;2022-12-18T12:11:28;-1.88;71.06
70534;SHT31;58088;51.186;17.130;2022-12-18T12:17:21;-1.95;71.11
70534;SHT31;58088;51.186;17.130;2022-12-18T12:20:02;-2.00;71.16
70534;SHT31;58088;51.186;17.130;2022-12-18T12:31:33;-1.97;71.34
70534;SHT31;58088;51.186;17.130;2022-12-18T12:34:31;-1.92;71.39
70534;SHT31;58088;51.186;17.130;2022-12-18T12:39:48;-1.89;71.40
70534;SHT31;58088;51.186;17.130;2022-12-18T12:42:20;-1.84;71.38
70534;SHT31;58088;51.186;17.130;2022-12-18T12:45:32;-1.88;71.26
70534;SHT31;58088;51.186;17.130;2022-12-18T12:48:16;-1.90;71.26
70534;SHT31;58088;51.186;17.130;2022-12-18T12:51:52;-1.96;71.20
70534;SHT31;58088;51.186;17.130;2022-12-18T12:54:03;-1.95;71.30
70534;SHT31;58088;51.186;17.130;2022-12-18T12:56:43;-1.90;71.32
70534;SHT31;58088;51.186;17.130;2022-12-18T13:02:22;-1.84;71.27
70534;SHT31;58088;51.186;17.130;2022-12-18T13:05:14;-1.80;71.29
70534;SHT31;58088;51.186;17.130;2022-12-18T13:08:02;-1.75;71.21
70534;SHT31;58088;51.186;17.130;2022-12-18T13:10:34;-1.73;71.22
70534;SHT31;58088;51.186;17.130;2022-12-18T13:13:12;-1.73;71.13
70534;SHT31;58088;51.186;17.130;2022-12-18T13:15:46;-1.76;71.10
70534;SHT31;58088;51.186;17.130;2022-12-18T13:18:31;-1.78;71.08
70534;SHT31;58088;51.186;17.130;2022-12-18T13:21:02;-1.82;71.10
70534;SHT31;58088;51.186;17.130;2022-12-18T13:23:49;-1.88;71.10
70534;SHT31;58088;51.186;17.130;2022-12-18T13:31:15;-2.02;71.20
70534;SHT31;58088;51.186;17.130;2022-12-18T13:36:45;-2.14;71.30
70534;SHT31;58088;51.186;17.130;2022-12-18T13:41:48;-2.15;71.40
70534;SHT31;58088;51.186;17.130;2022-12-18T13:50:02;-2.21;71.50
70534;SHT31;58088;51.186;17.130;2022-12-18T13:52:43;-2.23;71.59
70534;SHT31;58088;51.186;17.130;2022-12-18T13:55:14;-2.22;71.67
70534;SHT31;58088;51.186;17.130;2022-12-18T13:57:45;-2.23;71.73
70534;SHT31;58088;51.186;17.130;2022-12-18T14:00:28;-2.23;71.75
70534;SHT31;58088;51.186;17.130;2022-12-18T14:02:55;-2.24;71.78
70534;SHT31;58088;51.186;17.130;2022-12-18T14:05:27;-2.25;71.80
70534;SHT31;58088;51.186;17.130;2022-12-18T14:08:01;-2.26;71.80
70534;SHT31;58088;51.186;17.130;2022-12-18T14:10:44;-2.28;71.84
70534;SHT31;58088;51.186;17.130;2022-12-18T14:13:24;-2.29;71.90
70534;SHT31;58088;51.186;17.130;2022-12-18T14:15:56;-2.31;71.90
70534;SHT31;58088;51.186;17.130;2022-12-18T14:18:42;-2.33;71.90
70534;SHT31;58088;51.186;17.130;2022-12-18T14:21:31;-2.37;71.90
70534;SHT31;58088;51.186;17.130;2022-12-18T14:24:13;-2.42;71.90
70534;SHT31;58088;51.186;17.130;2022-12-18T14:26:46;-2.46;71.99
70534;SHT31;58088;51.186;17.130;2022-12-18T14:29:25;-2.49;72.00
70534;SHT31;58088;51.186;17.130;2022-12-18T14:32:04;-2.51;72.00
70534;SHT31;58088;51.186;17.130;2022-12-18T14:34:32;-2.59;72.00
70534;SHT31;58088;51.186;17.130;2022-12-18T14:36:58;-2.69;72.10
70534;SHT31;58088;51.186;17.130;2022-12-18T14:39:24;-2.78;72.23
70534;SHT31;58088;51.186;17.130;2022-12-18T14:41:51;-2.81;72.34
70534;SHT31;58088;51.186;17.130;2022-12-18T14:44:18;-2.85;72.40
70534;SHT31;58088;51.186;17.130;2022-12-18T14:46:47;-2.90;72.53
70534;SHT31;58088;51.186;17.130;2022-12-18T14:49:34;-2.94;72.63
70534;SHT31;58088;51.186;17.130;2022-12-18T14:52:03;-2.95;72.70
70534;SHT31;58088;51.186;17.130;2022-12-18T14:54:33;-2.92;72.71
70534;SHT31;58088;51.186;17.130;2022-12-18T14:57:13;-2.94;72.71
70534;SHT31;58088;51.186;17.130;2022-12-18T14:59:49;-2.94;72.70
70534;SHT31;58088;51.186;17.130;2022-12-18T15:02:23;-2.98;72.70
70534;SHT31;58088;51.186;17.130;2022-12-18T15:05:05;-3.03;72.77
70534;SHT31;58088;51.186;17.130;2022-12-18T15:07:55;-3.09;72.86
70534;SHT31;58088;51.186;17.130;2022-12-18T15:10:26;-3.14;72.95
70534;SHT31;58088;51.186;17.130;2022-12-18T15:20:40;-3.33;73.38
70534;SHT31;58088;51.186;17.130;2022-12-18T15:23:21;-3.37;73.48
70534;SHT31;58088;51.186;17.130;2022-12-18T15:26:02;-3.38;73.59
70534;SHT31;58088;51.186;17.130;2022-12-18T15:28:43;-3.39;73.60
70534;SHT31;58088;51.186;17.130;2022-12-18T15:31:28;-3.42;73.66
70534;SHT31;58088;51.186;17.130;2022-12-18T15:36:46;-3.49;73.84
70534;SHT31;58088;51.186;17.130;2022-12-18T15:39:13;-3.50;73.86
70534;SHT31;58088;51.186;17.130;2022-12-18T15:41:42;-3.55;73.97
70534;SHT31;58088;51.186;17.130;2022-12-18T15:44:29;-3.56;74.01
70534;SHT31;58088;51.186;17.130;2022-12-18T15:46:56;-3.56;74.07
70534;SHT31;58088;51.186;17.130;2022-12-18T15:49:26;-3.57;74.10
70534;SHT31;58088;51.186;17.130;2022-12-18T15:51:56;-3.59;74.11
70534;SHT31;58088;51.186;17.130;2022-12-18T15:54:25;-3.59;74.22
70534;SHT31;58088;51.186;17.130;2022-12-18T15:57:12;-3.59;74.24
70534;SHT31;58088;51.186;17.130;2022-12-18T15:59:49;-3.60;74.30
70534;SHT31;58088;51.186;17.130;2022-12-18T16:02:23;-3.60;74.28
70534;SHT31;58088;51.186;17.130;2022-12-18T16:04:52;-3.66;74.31
70534;SHT31;58088;51.186;17.130;2022-12-18T16:07:20;-3.69;74.32
70534;SHT31;58088;51.186;17.130;2022-12-18T16:09:47;-3.71;74.34
70534;SHT31;58088;51.186;17.130;2022-12-18T16:12:15;-3.74;74.46
70534;SHT31;58088;51.186;17.130;2022-12-18T16:14:49;-3.75;74.58
70534;SHT31;58088;51.186;17.130;2022-12-18T16:17:16;-3.76;74.58
70534;SHT31;58088;51.186;17.130;2022-12-18T16:19:44;-3.81;74.61
70534;SHT31;58088;51.186;17.130;2022-12-18T16:22:18;-3.87;74.70
70534;SHT31;58088;51.186;17.130;2022-12-18T16:24:53;-3.92;74.76
70534;SHT31;58088;51.186;17.130;2022-12-18T16:27:23;-3.95;74.89
70534;SHT31;58088;51.186;17.130;2022-12-18T16:29:51;-3.99;74.92
70534;SHT31;58088;51.186;17.130;2022-12-18T16:32:19;-4.00;75.09
70534;SHT31;58088;51.186;17.130;2022-12-18T16:34:47;-4.00;75.12
70534;SHT31;58088;51.186;17.130;2022-12-18T16:37:14;-4.00;75.19
70534;SHT31;58088;51.186;17.130;2022-12-18T16:39:42;-3.99;75.20
70534;SHT31;58088;51.186;17.130;2022-12-18T16:42:14;-4.02;75.22
70534;SHT31;58088;51.186;17.130;2022-12-18T16:44:44;-4.03;75.24
70534;SHT31;58088;51.186;17.130;2022-12-18T16:47:15;-4.06;75.33
70534;SHT31;58088;51.186;17.130;2022-12-18T16:49:43;-4.06;75.30
70534;SHT31;58088;51.186;17.130;2022-12-18T16:52:11;-4.10;75.40
70534;SHT31;58088;51.186;17.130;2022-12-18T16:54:40;-4.14;75.51
70534;SHT31;58088;51.186;17.130;2022-12-18T16:57:15;-4.14;75.59
70534;SHT31;58088;51.186;17.130;2022-12-18T16:59:44;-4.15;75.62
70534;SHT31;58088;51.186;17.130;2022-12-18T17:02:17;-4.17;75.67
70534;SHT31;58088;51.186;17.130;2022-12-18T17:04:52;-4.18;75.63
70534;SHT31;58088;51.186;17.130;2022-12-18T17:07:23;-4.21;75.60
70534;SHT31;58088;51.186;17.130;2022-12-18T17:09:53;-4.24;75.62
70534;SHT31;58088;51.186;17.130;2022-12-18T17:12:24;-4.28;75.69
70534;SHT31;58088;51.186;17.130;2022-12-18T17:14:52;-4.28;75.66
70534;SHT31;58088;51.186;17.130;2022-12-18T17:17:20;-4.29;75.60
70534;SHT31;58088;51.186;17.130;2022-12-18T17:19:47;-4.29;75.54
70534;SHT31;58088;51.186;17.130;2022-12-18T17:22:13;-4.34;75.52
70534;SHT31;58088;51.186;17.130;2022-12-18T17:24:40;-4.37;75.51
70534;SHT31;58088;51.186;17.130;2022-12-18T17:27:07;-4.38;75.51
70534;SHT31;58088;51.186;17.130;2022-12-18T17:29:33;-4.43;75.49
70534;SHT31;58088;51.186;17.130;2022-12-18T17:32:00;-4.46;75.42
70534;SHT31;58088;51.186;17.130;2022-12-18T17:34:29;-4.52;75.42
70534;SHT31;58088;51.186;17.130;2022-12-18T17:36:56;-4.57;75.49
70534;SHT31;58088;51.186;17.130;2022-12-18T17:39:23;-4.57;75.49
70534;SHT31;58088;51.186;17.130;2022-12-18T17:41:50;-4.61;75.47
70534;SHT31;58088;51.186;17.130;2022-12-18T17:44:19;-4.63;75.47
70534;SHT31;58088;51.186;17.130;2022-12-18T17:46:45;-4.65;75.49
70534;SHT31;58088;51.186;17.130;2022-12-18T17:49:14;-4.68;75.40
70534;SHT31;58088;51.186;17.130;2022-12-18T17:51:42;-4.73;75.40
70534;SHT31;58088;51.186;17.130;2022-12-18T17:54:09;-4.78;75.42
70534;SHT31;58088;51.186;17.130;2022-12-18T17:56:37;-4.81;75.50